sensor_id;sensor_type;location;lat;lon;timestamp;P1;durP1;ratioP1;P2;durP2;ratioP2
20511;SDS011;10414;52.074;5.126;2023-02-27T00:00:52;5.63;;;1.20;;
20511;SDS011;10414;52.074;5.126;2023-02-27T00:03:19;3.72;;;1.30;;
20511;SDS011;10414;52.074;5.126;2023-02-27T00:05:45;4.38;;;1.35;;
20511;SDS011;10414;52.074;5.126;2023-02-27T00:08:12;7.63;;;1.45;;
20511;SDS011;10414;52.074;5.126;2023-02-27T00:10:39;4.00;;;1.10;;
20511;SDS011;10414;52.074;5.126;2023-02-27T00:13:06;6.40;;;1.30;;
20511;SDS011;10414;52.074;5.126;2023-02-27T00:15:35;4.28;;;1.05;;
20511;SDS011;10414;52.074;5.126;2023-02-27T00:20:32;4.50;;;1.13;;
20511;SDS011;10414;52.074;5.126;2023-02-27T00:23:02;8.40;;;1.45;;
20511;SDS011;10414;52.074;5.126;2023-02-27T00:25:29;6.93;;;1.40;;
20511;SDS011;10414;52.074;5.126;2023-02-27T00:27:56;5.03;;;1.25;;
20511;SDS011;10414;52.074;5.126;2023-02-27T00:30:23;6.63;;;1.23;;
20511;SDS011;10414;52.074;5.126;2023-02-27T00:32:52;5.53;;;1.30;;
20511;SDS011;10414;52.074;5.126;2023-02-27T00:35:19;7.63;;;1.40;;
20511;SDS011;10414;52.074;5.126;2023-02-27T00:37:46;6.00;;;1.42;;
20511;SDS011;10414;52.074;5.126;2023-02-27T00:40:14;5.78;;;1.13;;
20511;SDS011;10414;52.074;5.126;2023-02-27T00:42:41;6.07;;;1.10;;
20511;SDS011;10414;52.074;5.126;2023-02-27T00:45:10;5.10;;;1.13;;
20511;SDS011;10414;52.074;5.126;2023-02-27T00:47:37;4.80;;;1.20;;
20511;SDS011;10414;52.074;5.126;2023-02-27T00:50:06;4.38;;;1.10;;
20511;SDS011;10414;52.074;5.126;2023-02-27T00:52:34;6.35;;;1.35;;
20511;SDS011;10414;52.074;5.126;2023-02-27T00:55:01;6.70;;;1.02;;
20511;SDS011;10414;52.074;5.126;2023-02-27T00:57:28;6.18;;;1.10;;
20511;SDS011;10414;52.074;5.126;2023-02-27T00:59:55;6.05;;;1.13;;
20511;SDS011;10414;52.074;5.126;2023-02-27T01:02:22;7.63;;;1.20;;
20511;SDS011;10414;52.074;5.126;2023-02-27T01:04:49;5.75;;;1.42;;
20511;SDS011;10414;52.074;5.126;2023-02-27T01:07:17;5.75;;;1.40;;
20511;SDS011;10414;52.074;5.126;2023-02-27T01:09:44;7.13;;;1.48;;
20511;SDS011;10414;52.074;5.126;2023-02-27T01:12:11;7.03;;;1.50;;
20511;SDS011;10414;52.074;5.126;2023-02-27T01:14:38;7.45;;;1.25;;
20511;SDS011;10414;52.074;5.126;2023-02-27T01:17:05;5.80;;;1.08;;
20511;SDS011;10414;52.074;5.126;2023-02-27T01:19:32;5.05;;;1.25;;
20511;SDS011;10414;52.074;5.126;2023-02-27T01:21:59;4.25;;;1.02;;
20511;SDS011;10414;52.074;5.126;2023-02-27T01:24:27;5.90;;;1.00;;
20511;SDS011;10414;52.074;5.126;2023-02-27T01:26:54;5.45;;;1.20;;
20511;SDS011;10414;52.074;5.126;2023-02-27T01:29:21;3.55;;;1.00;;
20511;SDS011;10414;52.074;5.126;2023-02-27T01:31:47;5.78;;;1.60;;
20511;SDS011;10414;52.074;5.126;2023-02-27T01:34:15;4.93;;;0.98;;
20511;SDS011;10414;52.074;5.126;2023-02-27T01:36:42;7.85;;;1.00;;
20511;SDS011;10414;52.074;5.126;2023-02-27T01:39:09;5.65;;;1.30;;
20511;SDS011;10414;52.074;5.126;2023-02-27T01:41:37;5.65;;;1.10;;
20511;SDS011;10414;52.074;5.126;2023-02-27T01:44:05;3.50;;;1.40;;
20511;SDS011;10414;52.074;5.126;2023-02-27T01:46:33;4.97;;;1.38;;
20511;SDS011;10414;52.074;5.126;2023-02-27T01:49:01;4.10;;;0.85;;
20511;SDS011;10414;52.074;5.126;2023-02-27T01:51:33;3.53;;;1.17;;
20511;SDS011;10414;52.074;5.126;2023-02-27T01:54:04;3.67;;;0.88;;
20511;SDS011;10414;52.074;5.126;2023-02-27T01:59:03;3.72;;;0.90;;
20511;SDS011;10414;52.074;5.126;2023-02-27T02:01:33;4.32;;;1.17;;
20511;SDS011;10414;52.074;5.126;2023-02-27T02:04:03;6.97;;;1.25;;
20511;SDS011;10414;52.074;5.126;2023-02-27T02:06:36;6.07;;;1.33;;
20511;SDS011;10414;52.074;5.126;2023-02-27T02:09:04;5.72;;;1.20;;
20511;SDS011;10414;52.074;5.126;2023-02-27T02:11:33;4.63;;;1.20;;
20511;SDS011;10414;52.074;5.126;2023-02-27T02:14:00;5.97;;;1.15;;
20511;SDS011;10414;52.074;5.126;2023-02-27T02:16:38;2.78;;;1.00;;
20511;SDS011;10414;52.074;5.126;2023-02-27T02:19:22;6.25;;;1.42;;
20511;SDS011;10414;52.074;5.126;2023-02-27T02:22:22;4.18;;;1.05;;
20511;SDS011;10414;52.074;5.126;2023-02-27T02:28:05;3.67;;;1.00;;
20511;SDS011;10414;52.074;5.126;2023-02-27T02:30:46;4.22;;;1.27;;
20511;SDS011;10414;52.074;5.126;2023-02-27T02:33:47;3.97;;;1.23;;
20511;SDS011;10414;52.074;5.126;2023-02-27T02:36:46;3.67;;;1.00;;
20511;SDS011;10414;52.074;5.126;2023-02-27T02:42:39;7.55;;;1.55;;
20511;SDS011;10414;52.074;5.126;2023-02-27T02:45:14;5.50;;;1.23;;
20511;SDS011;10414;52.074;5.126;2023-02-27T02:47:52;3.72;;;1.23;;
20511;SDS011;10414;52.074;5.126;2023-02-27T02:50:27;4.18;;;1.45;;
20511;SDS011;10414;52.074;5.126;2023-02-27T02:53:01;3.42;;;1.00;;
20511;SDS011;10414;52.074;5.126;2023-02-27T02:55:36;6.07;;;1.25;;
20511;SDS011;10414;52.074;5.126;2023-02-27T02:58:09;6.60;;;1.63;;
20511;SDS011;10414;52.074;5.126;2023-02-27T03:00:40;7.82;;;1.30;;
20511;SDS011;10414;52.074;5.126;2023-02-27T03:03:13;4.18;;;1.23;;
20511;SDS011;10414;52.074;5.126;2023-02-27T03:05:46;3.45;;;1.10;;
20511;SDS011;10414;52.074;5.126;2023-02-27T03:08:18;5.95;;;1.10;;
20511;SDS011;10414;52.074;5.126;2023-02-27T03:10:51;5.43;;;1.08;;
20511;SDS011;10414;52.074;5.126;2023-02-27T03:13:23;3.20;;;0.80;;
20511;SDS011;10414;52.074;5.126;2023-02-27T03:15:57;5.53;;;1.25;;
20511;SDS011;10414;52.074;5.126;2023-02-27T03:18:29;4.47;;;1.10;;
20511;SDS011;10414;52.074;5.126;2023-02-27T03:21:01;3.50;;;1.23;;
20511;SDS011;10414;52.074;5.126;2023-02-27T03:23:34;4.43;;;1.00;;
20511;SDS011;10414;52.074;5.126;2023-02-27T03:26:06;4.07;;;1.02;;
20511;SDS011;10414;52.074;5.126;2023-02-27T03:28:36;5.07;;;1.17;;
20511;SDS011;10414;52.074;5.126;2023-02-27T03:31:10;4.57;;;1.02;;
20511;SDS011;10414;52.074;5.126;2023-02-27T03:33:42;4.88;;;1.10;;
20511;SDS011;10414;52.074;5.126;2023-02-27T03:36:14;7.78;;;1.15;;
20511;SDS011;10414;52.074;5.126;2023-02-27T03:38:51;4.35;;;1.17;;
20511;SDS011;10414;52.074;5.126;2023-02-27T03:41:27;6.53;;;1.52;;
20511;SDS011;10414;52.074;5.126;2023-02-27T03:43:57;5.38;;;1.25;;
20511;SDS011;10414;52.074;5.126;2023-02-27T03:46:30;8.63;;;1.50;;
20511;SDS011;10414;52.074;5.126;2023-02-27T03:48:57;5.95;;;1.15;;
20511;SDS011;10414;52.074;5.126;2023-02-27T03:51:24;2.28;;;1.10;;
20511;SDS011;10414;52.074;5.126;2023-02-27T03:53:54;5.43;;;2.00;;
20511;SDS011;10414;52.074;5.126;2023-02-27T03:56:25;4.28;;;1.45;;
20511;SDS011;10414;52.074;5.126;2023-02-27T03:58:57;5.03;;;1.45;;
20511;SDS011;10414;52.074;5.126;2023-02-27T04:01:24;7.22;;;1.02;;
20511;SDS011;10414;52.074;5.126;2023-02-27T04:03:52;4.82;;;1.20;;
20511;SDS011;10414;52.074;5.126;2023-02-27T04:06:23;6.72;;;1.10;;
20511;SDS011;10414;52.074;5.126;2023-02-27T04:09:10;4.38;;;1.40;;
20511;SDS011;10414;52.074;5.126;2023-02-27T04:11:52;8.30;;;1.02;;
20511;SDS011;10414;52.074;5.126;2023-02-27T04:17:20;4.25;;;1.10;;
20511;SDS011;10414;52.074;5.126;2023-02-27T04:20:05;5.63;;;1.25;;
20511;SDS011;10414;52.074;5.126;2023-02-27T04:22:53;11.05;;;1.20;;
20511;SDS011;10414;52.074;5.126;2023-02-27T04:25:26;6.57;;;1.50;;
20511;SDS011;10414;52.074;5.126;2023-02-27T04:28:04;7.68;;;1.30;;
20511;SDS011;10414;52.074;5.126;2023-02-27T04:30:41;4.82;;;1.08;;
20511;SDS011;10414;52.074;5.126;2023-02-27T04:33:13;8.38;;;1.40;;
20511;SDS011;10414;52.074;5.126;2023-02-27T04:35:49;3.15;;;0.90;;
20511;SDS011;10414;52.074;5.126;2023-02-27T04:38:18;8.68;;;1.50;;
20511;SDS011;10414;52.074;5.126;2023-02-27T04:40:54;4.68;;;1.08;;
20511;SDS011;10414;52.074;5.126;2023-02-27T04:43:26;4.13;;;1.02;;
20511;SDS011;10414;52.074;5.126;2023-02-27T04:45:54;8.23;;;1.10;;
20511;SDS011;10414;52.074;5.126;2023-02-27T04:48:24;5.00;;;1.23;;
20511;SDS011;10414;52.074;5.126;2023-02-27T04:50:53;5.70;;;1.50;;
20511;SDS011;10414;52.074;5.126;2023-02-27T04:53:24;8.50;;;1.40;;
20511;SDS011;10414;52.074;5.126;2023-02-27T04:55:58;4.07;;;1.00;;
20511;SDS011;10414;52.074;5.126;2023-02-27T04:58:31;5.03;;;1.20;;
20511;SDS011;10414;52.074;5.126;2023-02-27T05:01:02;4.13;;;1.40;;
20511;SDS011;10414;52.074;5.126;2023-02-27T05:03:33;4.25;;;1.23;;
20511;SDS011;10414;52.074;5.126;2023-02-27T05:06:05;5.45;;;1.20;;
20511;SDS011;10414;52.074;5.126;2023-02-27T05:08:34;3.88;;;1.10;;
20511;SDS011;10414;52.074;5.126;2023-02-27T05:11:07;3.83;;;1.23;;
20511;SDS011;10414;52.074;5.126;2023-02-27T05:13:38;5.25;;;1.13;;
20511;SDS011;10414;52.074;5.126;2023-02-27T05:16:10;5.78;;;1.15;;
20511;SDS011;10414;52.074;5.126;2023-02-27T05:18:41;4.72;;;1.20;;
20511;SDS011;10414;52.074;5.126;2023-02-27T05:21:13;6.68;;;1.35;;
20511;SDS011;10414;52.074;5.126;2023-02-27T05:23:49;5.20;;;1.08;;
20511;SDS011;10414;52.074;5.126;2023-02-27T05:26:31;5.07;;;1.08;;
20511;SDS011;10414;52.074;5.126;2023-02-27T05:29:14;4.20;;;1.50;;
20511;SDS011;10414;52.074;5.126;2023-02-27T05:31:50;6.15;;;1.48;;
20511;SDS011;10414;52.074;5.126;2023-02-27T05:36:50;3.63;;;1.10;;
20511;SDS011;10414;52.074;5.126;2023-02-27T05:39:22;3.33;;;1.23;;
20511;SDS011;10414;52.074;5.126;2023-02-27T05:41:55;5.28;;;1.05;;
20511;SDS011;10414;52.074;5.126;2023-02-27T05:44:28;7.05;;;1.30;;
20511;SDS011;10414;52.074;5.126;2023-02-27T05:46:58;5.05;;;1.40;;
20511;SDS011;10414;52.074;5.126;2023-02-27T05:49:30;5.43;;;1.20;;
20511;SDS011;10414;52.074;5.126;2023-02-27T05:51:59;7.50;;;1.33;;
20511;SDS011;10414;52.074;5.126;2023-02-27T05:54:31;4.53;;;0.90;;
20511;SDS011;10414;52.074;5.126;2023-02-27T05:57:03;7.85;;;1.38;;
20511;SDS011;10414;52.074;5.126;2023-02-27T05:59:36;4.40;;;1.48;;
20511;SDS011;10414;52.074;5.126;2023-02-27T06:02:08;9.00;;;1.52;;
20511;SDS011;10414;52.074;5.126;2023-02-27T06:04:37;5.38;;;1.33;;
20511;SDS011;10414;52.074;5.126;2023-02-27T06:07:04;6.05;;;2.00;;
20511;SDS011;10414;52.074;5.126;2023-02-27T06:09:31;5.10;;;1.40;;
20511;SDS011;10414;52.074;5.126;2023-02-27T06:11:59;4.20;;;1.50;;
20511;SDS011;10414;52.074;5.126;2023-02-27T06:14:27;3.88;;;1.27;;
20511;SDS011;10414;52.074;5.126;2023-02-27T06:16:55;4.80;;;1.50;;
20511;SDS011;10414;52.074;5.126;2023-02-27T06:19:22;8.50;;;1.38;;
20511;SDS011;10414;52.074;5.126;2023-02-27T06:21:49;9.75;;;1.63;;
20511;SDS011;10414;52.074;5.126;2023-02-27T06:24:16;6.25;;;1.23;;
20511;SDS011;10414;52.074;5.126;2023-02-27T06:26:43;3.92;;;1.33;;
20511;SDS011;10414;52.074;5.126;2023-02-27T06:29:12;5.47;;;1.48;;
20511;SDS011;10414;52.074;5.126;2023-02-27T06:31:39;13.65;;;1.65;;
20511;SDS011;10414;52.074;5.126;2023-02-27T06:34:07;5.82;;;1.42;;
20511;SDS011;10414;52.074;5.126;2023-02-27T06:36:34;9.20;;;1.70;;
20511;SDS011;10414;52.074;5.126;2023-02-27T06:39:01;7.50;;;1.58;;
20511;SDS011;10414;52.074;5.126;2023-02-27T06:41:28;5.25;;;1.58;;
20511;SDS011;10414;52.074;5.126;2023-02-27T06:43:55;7.70;;;1.52;;
20511;SDS011;10414;52.074;5.126;2023-02-27T06:46:22;9.30;;;1.55;;
20511;SDS011;10414;52.074;5.126;2023-02-27T06:48:49;4.63;;;1.30;;
20511;SDS011;10414;52.074;5.126;2023-02-27T06:51:18;5.57;;;1.33;;
20511;SDS011;10414;52.074;5.126;2023-02-27T06:53:44;5.57;;;1.52;;
20511;SDS011;10414;52.074;5.126;2023-02-27T06:56:11;5.60;;;1.55;;
20511;SDS011;10414;52.074;5.126;2023-02-27T06:58:38;9.23;;;1.65;;
20511;SDS011;10414;52.074;5.126;2023-02-27T07:01:05;4.38;;;1.30;;
20511;SDS011;10414;52.074;5.126;2023-02-27T07:03:32;6.20;;;1.50;;
20511;SDS011;10414;52.074;5.126;2023-02-27T07:05:59;8.50;;;1.88;;
20511;SDS011;10414;52.074;5.126;2023-02-27T07:08:28;7.80;;;1.27;;
20511;SDS011;10414;52.074;5.126;2023-02-27T07:10:55;5.03;;;1.30;;
20511;SDS011;10414;52.074;5.126;2023-02-27T07:13:22;5.07;;;1.80;;
20511;SDS011;10414;52.074;5.126;2023-02-27T07:15:49;7.78;;;1.38;;
20511;SDS011;10414;52.074;5.126;2023-02-27T07:18:18;7.70;;;1.90;;
20511;SDS011;10414;52.074;5.126;2023-02-27T07:20:48;4.88;;;1.63;;
20511;SDS011;10414;52.074;5.126;2023-02-27T07:25:43;4.78;;;2.08;;
20511;SDS011;10414;52.074;5.126;2023-02-27T07:28:12;9.35;;;1.90;;
20511;SDS011;10414;52.074;5.126;2023-02-27T07:30:39;6.20;;;1.30;;
20511;SDS011;10414;52.074;5.126;2023-02-27T07:33:06;6.45;;;1.80;;
20511;SDS011;10414;52.074;5.126;2023-02-27T07:35:33;5.60;;;1.52;;
20511;SDS011;10414;52.074;5.126;2023-02-27T07:38:00;5.85;;;1.15;;
20511;SDS011;10414;52.074;5.126;2023-02-27T07:40:27;9.80;;;1.45;;
20511;SDS011;10414;52.074;5.126;2023-02-27T07:42:56;4.68;;;1.40;;
20511;SDS011;10414;52.074;5.126;2023-02-27T07:45:23;5.70;;;1.50;;
20511;SDS011;10414;52.074;5.126;2023-02-27T07:47:50;5.65;;;1.60;;
20511;SDS011;10414;52.074;5.126;2023-02-27T07:50:17;4.78;;;1.58;;
20511;SDS011;10414;52.074;5.126;2023-02-27T07:52:44;5.45;;;1.70;;
20511;SDS011;10414;52.074;5.126;2023-02-27T07:55:11;4.00;;;1.50;;
20511;SDS011;10414;52.074;5.126;2023-02-27T07:57:39;5.90;;;1.50;;
20511;SDS011;10414;52.074;5.126;2023-02-27T08:00:08;5.45;;;1.73;;
20511;SDS011;10414;52.074;5.126;2023-02-27T08:02:36;7.63;;;1.80;;
20511;SDS011;10414;52.074;5.126;2023-02-27T08:05:03;6.22;;;1.63;;
20511;SDS011;10414;52.074;5.126;2023-02-27T08:07:30;5.88;;;1.70;;
20511;SDS011;10414;52.074;5.126;2023-02-27T08:09:57;8.43;;;2.00;;
20511;SDS011;10414;52.074;5.126;2023-02-27T08:12:24;6.05;;;1.60;;
20511;SDS011;10414;52.074;5.126;2023-02-27T08:14:51;7.25;;;1.55;;
20511;SDS011;10414;52.074;5.126;2023-02-27T08:17:19;5.90;;;1.30;;
20511;SDS011;10414;52.074;5.126;2023-02-27T08:19:46;4.75;;;1.50;;
20511;SDS011;10414;52.074;5.126;2023-02-27T08:22:13;4.53;;;1.40;;
20511;SDS011;10414;52.074;5.126;2023-02-27T08:24:40;5.82;;;1.30;;
20511;SDS011;10414;52.074;5.126;2023-02-27T08:27:07;3.65;;;1.30;;
20511;SDS011;10414;52.074;5.126;2023-02-27T08:29:34;8.85;;;1.35;;
20511;SDS011;10414;52.074;5.126;2023-02-27T08:32:01;5.95;;;1.50;;
20511;SDS011;10414;52.074;5.126;2023-02-27T08:34:30;4.18;;;1.27;;
20511;SDS011;10414;52.074;5.126;2023-02-27T08:36:57;4.50;;;1.50;;
20511;SDS011;10414;52.074;5.126;2023-02-27T08:39:24;4.53;;;1.40;;
20511;SDS011;10414;52.074;5.126;2023-02-27T08:41:51;5.18;;;1.55;;
20511;SDS011;10414;52.074;5.126;2023-02-27T08:44:18;6.65;;;1.60;;
20511;SDS011;10414;52.074;5.126;2023-02-27T08:46:45;7.95;;;1.45;;
20511;SDS011;10414;52.074;5.126;2023-02-27T08:49:12;4.35;;;1.40;;
20511;SDS011;10414;52.074;5.126;2023-02-27T08:51:41;5.22;;;1.70;;
20511;SDS011;10414;52.074;5.126;2023-02-27T08:54:08;7.38;;;1.70;;
20511;SDS011;10414;52.074;5.126;2023-02-27T08:56:34;5.28;;;1.42;;
20511;SDS011;10414;52.074;5.126;2023-02-27T08:59:01;8.57;;;1.40;;
20511;SDS011;10414;52.074;5.126;2023-02-27T09:01:28;9.48;;;1.40;;
20511;SDS011;10414;52.074;5.126;2023-02-27T09:03:58;3.93;;;1.53;;
20511;SDS011;10414;52.074;5.126;2023-02-27T09:06:25;6.03;;;1.60;;
20511;SDS011;10414;52.074;5.126;2023-02-27T09:08:54;7.43;;;1.60;;
20511;SDS011;10414;52.074;5.126;2023-02-27T09:11:21;5.25;;;1.40;;
20511;SDS011;10414;52.074;5.126;2023-02-27T09:13:48;3.95;;;1.25;;
20511;SDS011;10414;52.074;5.126;2023-02-27T09:16:16;7.13;;;1.38;;
20511;SDS011;10414;52.074;5.126;2023-02-27T09:18:44;4.55;;;1.30;;
20511;SDS011;10414;52.074;5.126;2023-02-27T09:21:11;6.25;;;1.42;;
20511;SDS011;10414;52.074;5.126;2023-02-27T09:23:39;7.93;;;1.33;;
20511;SDS011;10414;52.074;5.126;2023-02-27T09:26:07;4.85;;;1.35;;
20511;SDS011;10414;52.074;5.126;2023-02-27T09:28:35;5.03;;;1.50;;
20511;SDS011;10414;52.074;5.126;2023-02-27T09:31:06;4.55;;;1.42;;
20511;SDS011;10414;52.074;5.126;2023-02-27T09:33:34;5.10;;;1.33;;
20511;SDS011;10414;52.074;5.126;2023-02-27T09:36:02;4.47;;;1.25;;
20511;SDS011;10414;52.074;5.126;2023-02-27T09:38:30;4.82;;;1.30;;
20511;SDS011;10414;52.074;5.126;2023-02-27T09:40:58;6.85;;;1.48;;
20511;SDS011;10414;52.074;5.126;2023-02-27T09:43:28;7.95;;;1.95;;
20511;SDS011;10414;52.074;5.126;2023-02-27T09:46:00;5.28;;;1.30;;
20511;SDS011;10414;52.074;5.126;2023-02-27T09:48:31;4.13;;;1.40;;
20511;SDS011;10414;52.074;5.126;2023-02-27T09:51:01;7.10;;;1.70;;
20511;SDS011;10414;52.074;5.126;2023-02-27T09:53:30;4.22;;;1.35;;
20511;SDS011;10414;52.074;5.126;2023-02-27T09:56:04;4.45;;;1.23;;
20511;SDS011;10414;52.074;5.126;2023-02-27T09:58:39;5.05;;;1.55;;
20511;SDS011;10414;52.074;5.126;2023-02-27T10:01:12;6.97;;;1.30;;
20511;SDS011;10414;52.074;5.126;2023-02-27T10:03:48;5.25;;;1.40;;
20511;SDS011;10414;52.074;5.126;2023-02-27T10:06:29;5.72;;;1.50;;
20511;SDS011;10414;52.074;5.126;2023-02-27T10:09:06;4.13;;;1.35;;
20511;SDS011;10414;52.074;5.126;2023-02-27T10:11:42;7.75;;;1.40;;
20511;SDS011;10414;52.074;5.126;2023-02-27T10:14:23;5.28;;;1.35;;
20511;SDS011;10414;52.074;5.126;2023-02-27T10:16:55;6.95;;;1.40;;
20511;SDS011;10414;52.074;5.126;2023-02-27T10:19:24;7.38;;;1.40;;
20511;SDS011;10414;52.074;5.126;2023-02-27T10:21:54;4.15;;;1.20;;
20511;SDS011;10414;52.074;5.126;2023-02-27T10:24:24;2.90;;;1.00;;
20511;SDS011;10414;52.074;5.126;2023-02-27T10:26:53;8.05;;;1.27;;
20511;SDS011;10414;52.074;5.126;2023-02-27T10:29:26;8.88;;;1.50;;
20511;SDS011;10414;52.074;5.126;2023-02-27T10:31:56;6.43;;;1.33;;
20511;SDS011;10414;52.074;5.126;2023-02-27T10:34:28;3.67;;;1.30;;
20511;SDS011;10414;52.074;5.126;2023-02-27T10:36:57;5.60;;;1.20;;
20511;SDS011;10414;52.074;5.126;2023-02-27T10:41:55;4.45;;;1.02;;
20511;SDS011;10414;52.074;5.126;2023-02-27T10:44:29;3.88;;;1.17;;
20511;SDS011;10414;52.074;5.126;2023-02-27T10:46:57;4.22;;;0.95;;
20511;SDS011;10414;52.074;5.126;2023-02-27T10:49:24;4.10;;;1.00;;
20511;SDS011;10414;52.074;5.126;2023-02-27T10:52:03;5.75;;;1.17;;
20511;SDS011;10414;52.074;5.126;2023-02-27T10:54:32;3.63;;;1.20;;
20511;SDS011;10414;52.074;5.126;2023-02-27T10:57:00;4.28;;;1.00;;
20511;SDS011;10414;52.074;5.126;2023-02-27T10:59:31;4.57;;;1.30;;
20511;SDS011;10414;52.074;5.126;2023-02-27T11:02:02;4.82;;;1.08;;
20511;SDS011;10414;52.074;5.126;2023-02-27T11:04:33;7.90;;;1.30;;
20511;SDS011;10414;52.074;5.126;2023-02-27T11:07:02;8.15;;;1.35;;
20511;SDS011;10414;52.074;5.126;2023-02-27T11:09:33;6.47;;;1.33;;
20511;SDS011;10414;52.074;5.126;2023-02-27T11:12:11;5.13;;;1.00;;
20511;SDS011;10414;52.074;5.126;2023-02-27T11:14:50;2.28;;;0.77;;
20511;SDS011;10414;52.074;5.126;2023-02-27T11:17:23;4.13;;;1.33;;
20511;SDS011;10414;52.074;5.126;2023-02-27T11:19:53;4.88;;;1.20;;
20511;SDS011;10414;52.074;5.126;2023-02-27T11:22:21;4.97;;;1.08;;
20511;SDS011;10414;52.074;5.126;2023-02-27T11:24:49;4.32;;;0.80;;
20511;SDS011;10414;52.074;5.126;2023-02-27T11:27:18;5.40;;;1.20;;
20511;SDS011;10414;52.074;5.126;2023-02-27T11:29:55;4.50;;;0.90;;
20511;SDS011;10414;52.074;5.126;2023-02-27T11:32:23;3.15;;;0.80;;
20511;SDS011;10414;52.074;5.126;2023-02-27T11:34:54;1.65;;;0.60;;
20511;SDS011;10414;52.074;5.126;2023-02-27T11:37:22;4.50;;;1.17;;
20511;SDS011;10414;52.074;5.126;2023-02-27T11:39:57;4.22;;;1.00;;
20511;SDS011;10414;52.074;5.126;2023-02-27T11:42:29;3.83;;;1.10;;
20511;SDS011;10414;52.074;5.126;2023-02-27T11:44:59;2.45;;;0.90;;
20511;SDS011;10414;52.074;5.126;2023-02-27T11:47:29;3.28;;;1.10;;
20511;SDS011;10414;52.074;5.126;2023-02-27T11:50:08;4.50;;;0.90;;
20511;SDS011;10414;52.074;5.126;2023-02-27T11:53:00;3.95;;;0.93;;
20511;SDS011;10414;52.074;5.126;2023-02-27T11:55:37;3.28;;;0.90;;
20511;SDS011;10414;52.074;5.126;2023-02-27T11:58:05;2.75;;;0.80;;
20511;SDS011;10414;52.074;5.126;2023-02-27T12:00:41;3.42;;;0.80;;
20511;SDS011;10414;52.074;5.126;2023-02-27T12:03:13;3.58;;;1.00;;
20511;SDS011;10414;52.074;5.126;2023-02-27T12:05:46;3.00;;;0.85;;
20511;SDS011;10414;52.074;5.126;2023-02-27T12:08:17;2.97;;;0.80;;
20511;SDS011;10414;52.074;5.126;2023-02-27T12:10:51;3.13;;;0.80;;
20511;SDS011;10414;52.074;5.126;2023-02-27T12:13:24;3.47;;;0.80;;
20511;SDS011;10414;52.074;5.126;2023-02-27T12:15:57;4.50;;;0.75;;
20511;SDS011;10414;52.074;5.126;2023-02-27T12:18:30;4.13;;;1.00;;
20511;SDS011;10414;52.074;5.126;2023-02-27T12:21:04;2.95;;;0.88;;
20511;SDS011;10414;52.074;5.126;2023-02-27T12:23:36;3.90;;;0.80;;
20511;SDS011;10414;52.074;5.126;2023-02-27T12:26:07;1.90;;;0.70;;
20511;SDS011;10414;52.074;5.126;2023-02-27T12:28:42;5.10;;;1.55;;
20511;SDS011;10414;52.074;5.126;2023-02-27T12:31:23;9.55;;;1.08;;
20511;SDS011;10414;52.074;5.126;2023-02-27T12:34:03;4.38;;;0.90;;
20511;SDS011;10414;52.074;5.126;2023-02-27T12:36:36;3.00;;;0.85;;
20511;SDS011;10414;52.074;5.126;2023-02-27T12:39:03;3.42;;;1.00;;
20511;SDS011;10414;52.074;5.126;2023-02-27T12:41:35;1.70;;;0.73;;
20511;SDS011;10414;52.074;5.126;2023-02-27T12:44:16;3.15;;;0.70;;
20511;SDS011;10414;52.074;5.126;2023-02-27T12:46:56;3.83;;;0.60;;
20511;SDS011;10414;52.074;5.126;2023-02-27T12:49:38;2.70;;;0.90;;
20511;SDS011;10414;52.074;5.126;2023-02-27T12:52:11;4.40;;;1.00;;
20511;SDS011;10414;52.074;5.126;2023-02-27T12:54:51;3.10;;;0.82;;
20511;SDS011;10414;52.074;5.126;2023-02-27T12:57:31;3.60;;;0.90;;
20511;SDS011;10414;52.074;5.126;2023-02-27T13:02:46;1.80;;;0.73;;
20511;SDS011;10414;52.074;5.126;2023-02-27T13:08:11;2.28;;;0.70;;
20511;SDS011;10414;52.074;5.126;2023-02-27T13:10:47;3.13;;;0.93;;
20511;SDS011;10414;52.074;5.126;2023-02-27T13:13:18;2.33;;;0.80;;
20511;SDS011;10414;52.074;5.126;2023-02-27T13:15:52;3.88;;;1.30;;
20511;SDS011;10414;52.074;5.126;2023-02-27T13:18:29;2.67;;;0.90;;
20511;SDS011;10414;52.074;5.126;2023-02-27T13:21:04;4.28;;;1.20;;
20511;SDS011;10414;52.074;5.126;2023-02-27T13:23:38;3.70;;;1.10;;
20511;SDS011;10414;52.074;5.126;2023-02-27T13:26:15;4.60;;;1.10;;
20511;SDS011;10414;52.074;5.126;2023-02-27T13:28:47;3.38;;;0.80;;
20511;SDS011;10414;52.074;5.126;2023-02-27T13:31:16;3.92;;;0.90;;
20511;SDS011;10414;52.074;5.126;2023-02-27T13:33:53;3.08;;;0.80;;
20511;SDS011;10414;52.074;5.126;2023-02-27T13:36:29;2.13;;;0.90;;
20511;SDS011;10414;52.074;5.126;2023-02-27T13:39:01;4.03;;;1.10;;
20511;SDS011;10414;52.074;5.126;2023-02-27T13:50:46;3.22;;;0.77;;
20511;SDS011;10414;52.074;5.126;2023-02-27T13:53:23;3.35;;;1.02;;
20511;SDS011;10414;52.074;5.126;2023-02-27T13:55:55;2.22;;;0.90;;
20511;SDS011;10414;52.074;5.126;2023-02-27T13:58:41;2.63;;;1.00;;
20511;SDS011;10414;52.074;5.126;2023-02-27T14:01:13;5.10;;;0.95;;
20511;SDS011;10414;52.074;5.126;2023-02-27T14:03:42;4.90;;;0.98;;
20511;SDS011;10414;52.074;5.126;2023-02-27T14:06:18;3.90;;;0.80;;
20511;SDS011;10414;52.074;5.126;2023-02-27T14:08:48;2.95;;;0.70;;
20511;SDS011;10414;52.074;5.126;2023-02-27T14:11:20;3.40;;;0.80;;
20511;SDS011;10414;52.074;5.126;2023-02-27T14:14:06;5.00;;;0.80;;
20511;SDS011;10414;52.074;5.126;2023-02-27T14:16:54;2.38;;;0.80;;
20511;SDS011;10414;52.074;5.126;2023-02-27T14:22:28;5.40;;;0.90;;
20511;SDS011;10414;52.074;5.126;2023-02-27T14:25:21;1.77;;;0.80;;
20511;SDS011;10414;52.074;5.126;2023-02-27T14:27:54;4.80;;;1.00;;
20511;SDS011;10414;52.074;5.126;2023-02-27T14:30:25;2.20;;;0.77;;
20511;SDS011;10414;52.074;5.126;2023-02-27T14:32:56;2.65;;;0.80;;
20511;SDS011;10414;52.074;5.126;2023-02-27T14:35:26;4.88;;;1.08;;
20511;SDS011;10414;52.074;5.126;2023-02-27T14:37:55;4.72;;;1.02;;
20511;SDS011;10414;52.074;5.126;2023-02-27T14:40:27;3.22;;;0.95;;
20511;SDS011;10414;52.074;5.126;2023-02-27T14:43:02;3.42;;;1.00;;
20511;SDS011;10414;52.074;5.126;2023-02-27T14:45:36;6.75;;;1.30;;
20511;SDS011;10414;52.074;5.126;2023-02-27T14:48:04;3.97;;;0.82;;
20511;SDS011;10414;52.074;5.126;2023-02-27T14:50:35;3.60;;;0.90;;
20511;SDS011;10414;52.074;5.126;2023-02-27T14:53:04;2.47;;;0.70;;
20511;SDS011;10414;52.074;5.126;2023-02-27T14:55:33;3.40;;;0.93;;
20511;SDS011;10414;52.074;5.126;2023-02-27T14:58:07;3.53;;;0.97;;
20511;SDS011;10414;52.074;5.126;2023-02-27T15:00:41;3.78;;;0.80;;
20511;SDS011;10414;52.074;5.126;2023-02-27T15:03:18;2.33;;;0.70;;
20511;SDS011;10414;52.074;5.126;2023-02-27T15:05:47;2.13;;;0.68;;
20511;SDS011;10414;52.074;5.126;2023-02-27T15:08:17;3.33;;;0.90;;
20511;SDS011;10414;52.074;5.126;2023-02-27T15:10:47;2.55;;;0.80;;
20511;SDS011;10414;52.074;5.126;2023-02-27T15:13:20;2.97;;;1.33;;
20511;SDS011;10414;52.074;5.126;2023-02-27T15:15:50;4.20;;;0.90;;
20511;SDS011;10414;52.074;5.126;2023-02-27T15:18:40;4.45;;;1.00;;
20511;SDS011;10414;52.074;5.126;2023-02-27T15:21:10;2.75;;;0.73;;
20511;SDS011;10414;52.074;5.126;2023-02-27T15:23:40;2.75;;;0.70;;
20511;SDS011;10414;52.074;5.126;2023-02-27T15:26:10;3.13;;;0.90;;
20511;SDS011;10414;52.074;5.126;2023-02-27T15:28:39;3.60;;;0.90;;
20511;SDS011;10414;52.074;5.126;2023-02-27T15:31:06;3.72;;;1.00;;
20511;SDS011;10414;52.074;5.126;2023-02-27T15:33:37;3.75;;;1.15;;
20511;SDS011;10414;52.074;5.126;2023-02-27T15:36:05;4.32;;;0.73;;
20511;SDS011;10414;52.074;5.126;2023-02-27T15:38:34;3.10;;;1.00;;
20511;SDS011;10414;52.074;5.126;2023-02-27T15:41:02;6.13;;;1.10;;
20511;SDS011;10414;52.074;5.126;2023-02-27T15:43:31;3.85;;;1.00;;
20511;SDS011;10414;52.074;5.126;2023-02-27T15:45:58;2.60;;;1.00;;
20511;SDS011;10414;52.074;5.126;2023-02-27T15:48:25;4.47;;;0.93;;
20511;SDS011;10414;52.074;5.126;2023-02-27T15:50:54;3.35;;;0.70;;